sensor_id;sensor_type;location;lat;lon;timestamp;pressure;altitude;pressure_sealevel;temperature
76007;BMP280;64699;0.000;0.000;2022-12-29T00:00:01;100335.72;;;21.12
76007;BMP280;64699;0.000;0.000;2022-12-29T00:02:26;100330.19;;;21.12
76007;BMP280;64699;0.000;0.000;2022-12-29T00:04:52;100336.47;;;21.13
76007;BMP280;64699;0.000;0.000;2022-12-29T00:07:17;100331.66;;;21.13
76007;BMP280;64699;0.000;0.000;2022-12-29T00:09:43;100331.66;;;21.13
76007;BMP280;64699;0.000;0.000;2022-12-29T00:12:09;100326.88;;;21.14
76007;BMP280;64699;0.000;0.000;2022-12-29T00:14:35;100330.59;;;21.16
76007;BMP280;64699;0.000;0.000;2022-12-29T00:17:18;100335.38;;;21.16
76007;BMP280;64699;0.000;0.000;2022-12-29T00:19:44;100316.03;;;21.16
76007;BMP280;64699;0.000;0.000;2022-12-29T00:22:28;100318.78;;;21.16
76007;BMP280;64699;0.000;0.000;2022-12-29T00:25:12;100316.94;;;21.18
76007;BMP280;64699;0.000;0.000;2022-12-29T00:27:56;100318.78;;;21.16
76007;BMP280;64699;0.000;0.000;2022-12-29T00:30:45;100313.47;;;21.18
76007;BMP280;64699;0.000;0.000;2022-12-29T00:33:30;100322.84;;;21.15
76007;BMP280;64699;0.000;0.000;2022-12-29T00:36:18;100309.19;;;21.17
76007;BMP280;64699;0.000;0.000;2022-12-29T00:38:47;100321.00;;;21.17
76007;BMP280;64699;0.000;0.000;2022-12-29T00:41:32;100316.03;;;21.16
76007;BMP280;64699;0.000;0.000;2022-12-29T00:44:16;100321.38;;;21.14
76007;BMP280;64699;0.000;0.000;2022-12-29T00:46:42;100320.59;;;21.13
76007;BMP280;64699;0.000;0.000;2022-12-29T00:49:10;100316.59;;;21.14
76007;BMP280;64699;0.000;0.000;2022-12-29T00:51:55;100313.06;;;21.14
76007;BMP280;64699;0.000;0.000;2022-12-29T00:54:21;100329.50;;;21.12
76007;BMP280;64699;0.000;0.000;2022-12-29T00:56:51;100326.88;;;21.14
76007;BMP280;64699;0.000;0.000;2022-12-29T00:59:18;100326.88;;;21.14
76007;BMP280;64699;0.000;0.000;2022-12-29T01:01:43;100319.88;;;21.13
76007;BMP280;64699;0.000;0.000;2022-12-29T01:04:09;100318.59;;;21.14
76007;BMP280;64699;0.000;0.000;2022-12-29T01:06:35;100310.31;;;21.14
76007;BMP280;64699;0.000;0.000;2022-12-29T01:09:02;100310.31;;;21.14
76007;BMP280;64699;0.000;0.000;2022-12-29T01:11:46;100305.53;;;21.14
76007;BMP280;64699;0.000;0.000;2022-12-29T01:14:12;100314.03;;;21.16
76007;BMP280;64699;0.000;0.000;2022-12-29T01:16:38;100303.50;;;21.15
76007;BMP280;64699;0.000;0.000;2022-12-29T01:19:03;100300.22;;;21.16
76007;BMP280;64699;0.000;0.000;2022-12-29T01:21:29;100292.63;;;21.17
76007;BMP280;64699;0.000;0.000;2022-12-29T01:23:55;100293.94;;;21.16
76007;BMP280;64699;0.000;0.000;2022-12-29T01:26:20;100282.16;;;21.15
76007;BMP280;64699;0.000;0.000;2022-12-29T01:28:46;100292.97;;;21.13
76007;BMP280;64699;0.000;0.000;2022-12-29T01:31:12;100286.41;;;21.16
76007;BMP280;64699;0.000;0.000;2022-12-29T01:33:38;100279.03;;;21.19
76007;BMP280;64699;0.000;0.000;2022-12-29T01:36:04;100284.72;;;21.21
76007;BMP280;64699;0.000;0.000;2022-12-29T01:38:31;100262.78;;;21.23
76007;BMP280;64699;0.000;0.000;2022-12-29T01:40:56;100266.84;;;21.22
76007;BMP280;64699;0.000;0.000;2022-12-29T01:43:37;100270.34;;;21.22
76007;BMP280;64699;0.000;0.000;2022-12-29T01:46:04;100262.78;;;21.23
76007;BMP280;64699;0.000;0.000;2022-12-29T01:48:32;100256.56;;;21.22
76007;BMP280;64699;0.000;0.000;2022-12-29T01:50:57;100266.31;;;21.23
76007;BMP280;64699;0.000;0.000;2022-12-29T01:53:27;100264.28;;;21.24
76007;BMP280;64699;0.000;0.000;2022-12-29T01:55:54;100249.91;;;21.25
76007;BMP280;64699;0.000;0.000;2022-12-29T01:58:22;100245.31;;;21.28
76007;BMP280;64699;0.000;0.000;2022-12-29T02:00:49;100249.72;;;21.31
76007;BMP280;64699;0.000;0.000;2022-12-29T02:03:16;100249.88;;;21.33
76007;BMP280;64699;0.000;0.000;2022-12-29T02:05:46;100239.94;;;21.37
76007;BMP280;64699;0.000;0.000;2022-12-29T02:08:13;100242.16;;;21.39
76007;BMP280;64699;0.000;0.000;2022-12-29T02:10:39;100249.16;;;21.40
76007;BMP280;64699;0.000;0.000;2022-12-29T02:13:05;100245.09;;;21.41
76007;BMP280;64699;0.000;0.000;2022-12-29T02:24:00;100242.16;;;21.39
76007;BMP280;64699;0.000;0.000;2022-12-29T02:26:43;100235.13;;;21.38
76007;BMP280;64699;0.000;0.000;2022-12-29T02:39:45;100226.31;;;21.32
76007;BMP280;64699;0.000;0.000;2022-12-29T02:42:22;100231.66;;;21.30
76007;BMP280;64699;0.000;0.000;2022-12-29T02:44:57;100244.00;;;21.29
76007;BMP280;64699;0.000;0.000;2022-12-29T02:52:35;100243.84;;;21.27
76007;BMP280;64699;0.000;0.000;2022-12-29T02:55:02;100249.53;;;21.29
76007;BMP280;64699;0.000;0.000;2022-12-29T02:57:31;100243.63;;;21.32
76007;BMP280;64699;0.000;0.000;2022-12-29T03:12:30;100262.41;;;21.41
76007;BMP280;64699;0.000;0.000;2022-12-29T03:15:26;100264.25;;;21.39
76007;BMP280;64699;0.000;0.000;2022-12-29T03:18:14;100259.84;;;21.36
76007;BMP280;64699;0.000;0.000;2022-12-29T03:20:49;100260.56;;;21.36
76007;BMP280;64699;0.000;0.000;2022-12-29T03:23:16;100267.78;;;21.32
76007;BMP280;64699;0.000;0.000;2022-12-29T03:25:46;100270.53;;;21.32
76007;BMP280;64699;0.000;0.000;2022-12-29T03:28:14;100273.09;;;21.30
76007;BMP280;64699;0.000;0.000;2022-12-29T03:30:42;100268.69;;;21.27
76007;BMP280;64699;0.000;0.000;2022-12-29T03:33:09;100260.19;;;21.25
76007;BMP280;64699;0.000;0.000;2022-12-29T03:35:36;100256.56;;;21.22
76007;BMP280;64699;0.000;0.000;2022-12-29T03:40:48;100249.91;;;21.18
76007;BMP280;64699;0.000;0.000;2022-12-29T03:43:15;100245.50;;;21.15
76007;BMP280;64699;0.000;0.000;2022-12-29T03:45:41;100232.97;;;21.14
76007;BMP280;64699;0.000;0.000;2022-12-29T03:48:07;100221.91;;;21.14
76007;BMP280;64699;0.000;0.000;2022-12-29T03:50:32;100222.84;;;21.16
76007;BMP280;64699;0.000;0.000;2022-12-29T03:52:58;100221.16;;;21.21
76007;BMP280;64699;0.000;0.000;2022-12-29T03:55:23;100216.75;;;21.25
76007;BMP280;64699;0.000;0.000;2022-12-29T03:57:48;100205.50;;;21.31
76007;BMP280;64699;0.000;0.000;2022-12-29T04:00:14;100175.47;;;21.35
76007;BMP280;64699;0.000;0.000;2022-12-29T04:02:39;100164.56;;;21.37
76007;BMP280;64699;0.000;0.000;2022-12-29T04:05:05;100155.91;;;21.40
76007;BMP280;64699;0.000;0.000;2022-12-29T04:07:31;100155.19;;;21.40
76007;BMP280;64699;0.000;0.000;2022-12-29T04:09:57;100163.47;;;21.40
76007;BMP280;64699;0.000;0.000;2022-12-29T04:12:22;100166.25;;;21.40
76007;BMP280;64699;0.000;0.000;2022-12-29T04:14:48;100166.06;;;21.38
76007;BMP280;64699;0.000;0.000;2022-12-29T04:17:13;100160.38;;;21.36
76007;BMP280;64699;0.000;0.000;2022-12-29T04:19:39;100160.91;;;21.34
76007;BMP280;64699;0.000;0.000;2022-12-29T04:22:05;100155.19;;;21.32
76007;BMP280;64699;0.000;0.000;2022-12-29T04:24:30;100161.09;;;21.29
76007;BMP280;64699;0.000;0.000;2022-12-29T04:26:56;100160.94;;;21.27
76007;BMP280;64699;0.000;0.000;2022-12-29T04:29:21;100169.75;;;21.25
76007;BMP280;64699;0.000;0.000;2022-12-29T04:31:47;100168.84;;;21.23
76007;BMP280;64699;0.000;0.000;2022-12-29T04:34:12;100169.41;;;21.21
76007;BMP280;64699;0.000;0.000;2022-12-29T04:36:38;100170.16;;;21.22
76007;BMP280;64699;0.000;0.000;2022-12-29T04:39:05;100156.50;;;21.24
76007;BMP280;64699;0.000;0.000;2022-12-29T04:41:31;100161.47;;;21.25
76007;BMP280;64699;0.000;0.000;2022-12-29T04:43:56;100164.09;;;21.23
76007;BMP280;64699;0.000;0.000;2022-12-29T04:46:22;100176.97;;;21.21
76007;BMP280;64699;0.000;0.000;2022-12-29T04:48:47;100175.13;;;21.16
76007;BMP280;64699;0.000;0.000;2022-12-29T04:51:13;100170.72;;;21.13
76007;BMP280;64699;0.000;0.000;2022-12-29T04:53:39;100158.03;;;21.10
76007;BMP280;64699;0.000;0.000;2022-12-29T04:56:04;100161.34;;;21.08
76007;BMP280;64699;0.000;0.000;2022-12-29T04:58:30;100143.84;;;21.06
76007;BMP280;64699;0.000;0.000;2022-12-29T05:00:55;100135.38;;;21.04
76007;BMP280;64699;0.000;0.000;2022-12-29T05:03:21;100130.41;;;21.02
76007;BMP280;64699;0.000;0.000;2022-12-29T05:05:46;100124.88;;;21.02
76007;BMP280;64699;0.000;0.000;2022-12-29T05:08:12;100143.47;;;21.02
76007;BMP280;64699;0.000;0.000;2022-12-29T05:10:37;100144.75;;;21.01
76007;BMP280;64699;0.000;0.000;2022-12-29T05:13:03;100153.03;;;21.01
76007;BMP280;64699;0.000;0.000;2022-12-29T05:15:28;100140.53;;;21.00
76007;BMP280;64699;0.000;0.000;2022-12-29T05:17:54;100134.84;;;20.98
76007;BMP280;64699;0.000;0.000;2022-12-29T05:20:19;100128.03;;;20.99
76007;BMP280;64699;0.000;0.000;2022-12-29T05:22:45;100129.50;;;21.00
76007;BMP280;64699;0.000;0.000;2022-12-29T05:25:10;100128.19;;;21.01
76007;BMP280;64699;0.000;0.000;2022-12-29T05:27:36;100132.41;;;21.02
76007;BMP280;64699;0.000;0.000;2022-12-29T05:30:02;100142.19;;;21.03
76007;BMP280;64699;0.000;0.000;2022-12-29T05:32:28;100132.63;;;21.04
76007;BMP280;64699;0.000;0.000;2022-12-29T05:34:53;100132.63;;;21.04
76007;BMP280;64699;0.000;0.000;2022-12-29T05:37:19;100122.13;;;21.02
76007;BMP280;64699;0.000;0.000;2022-12-29T05:39:45;100125.63;;;21.03
76007;BMP280;64699;0.000;0.000;2022-12-29T05:42:11;100124.34;;;21.04
76007;BMP280;64699;0.000;0.000;2022-12-29T05:44:36;100116.78;;;21.04
76007;BMP280;64699;0.000;0.000;2022-12-29T05:47:02;100109.22;;;21.05
76007;BMP280;64699;0.000;0.000;2022-12-29T05:49:27;100094.50;;;21.02
76007;BMP280;64699;0.000;0.000;2022-12-29T05:51:53;100093.19;;;21.11
76007;BMP280;64699;0.000;0.000;2022-12-29T05:54:18;100090.06;;;21.07
76007;BMP280;64699;0.000;0.000;2022-12-29T05:56:44;100085.69;;;21.04
76007;BMP280;64699;0.000;0.000;2022-12-29T05:59:09;100089.88;;;21.05
76007;BMP280;64699;0.000;0.000;2022-12-29T06:01:35;100095.59;;;21.14
76007;BMP280;64699;0.000;0.000;2022-12-29T06:04:00;100096.69;;;21.11
76007;BMP280;64699;0.000;0.000;2022-12-29T06:06:26;100090.25;;;21.01
76007;BMP280;64699;0.000;0.000;2022-12-29T06:08:51;100098.94;;;20.98
76007;BMP280;64699;0.000;0.000;2022-12-29T06:11:17;100104.59;;;21.15
76007;BMP280;64699;0.000;0.000;2022-12-29T06:13:43;100103.44;;;21.25
76007;BMP280;64699;0.000;0.000;2022-12-29T06:16:09;100105.88;;;21.14
76007;BMP280;64699;0.000;0.000;2022-12-29T06:18:34;100097.44;;;21.04
76007;BMP280;64699;0.000;0.000;2022-12-29T06:21:00;100106.69;;;20.99
76007;BMP280;64699;0.000;0.000;2022-12-29T06:23:26;100096.91;;;20.98
76007;BMP280;64699;0.000;0.000;2022-12-29T06:25:52;100093.03;;;20.94
76007;BMP280;64699;0.000;0.000;2022-12-29T06:28:18;100093.25;;;20.96
76007;BMP280;64699;0.000;0.000;2022-12-29T06:30:44;100102.59;;;20.93
76007;BMP280;64699;0.000;0.000;2022-12-29T06:33:11;100103.19;;;20.91
76007;BMP280;64699;0.000;0.000;2022-12-29T06:35:36;100100.56;;;21.01
76007;BMP280;64699;0.000;0.000;2022-12-29T06:38:02;100102.63;;;21.00
76007;BMP280;64699;0.000;0.000;2022-12-29T06:40:27;100122.50;;;20.99
76007;BMP280;64699;0.000;0.000;2022-12-29T06:42:53;100123.38;;;21.09
76007;BMP280;64699;0.000;0.000;2022-12-29T06:45:19;100130.00;;;21.21
76007;BMP280;64699;0.000;0.000;2022-12-29T06:47:44;100117.31;;;21.18
76007;BMP280;64699;0.000;0.000;2022-12-29T06:50:10;100125.75;;;21.12
76007;BMP280;64699;0.000;0.000;2022-12-29T06:52:35;100125.41;;;21.16
76007;BMP280;64699;0.000;0.000;2022-12-29T06:55:01;100131.50;;;21.14
76007;BMP280;64699;0.000;0.000;2022-12-29T06:57:26;100136.28;;;21.14
76007;BMP280;64699;0.000;0.000;2022-12-29T06:59:52;100141.78;;;21.14
76007;BMP280;64699;0.000;0.000;2022-12-29T07:02:17;100132.75;;;21.13
76007;BMP280;64699;0.000;0.000;2022-12-29T07:04:44;100132.75;;;21.13
76007;BMP280;64699;0.000;0.000;2022-12-29T07:07:10;100132.59;;;21.11
76007;BMP280;64699;0.000;0.000;2022-12-29T07:09:35;100122.13;;;21.10
76007;BMP280;64699;0.000;0.000;2022-12-29T07:12:04;100116.59;;;21.10
76007;BMP280;64699;0.000;0.000;2022-12-29T07:14:31;100108.50;;;21.12
76007;BMP280;64699;0.000;0.000;2022-12-29T07:16:56;100109.19;;;21.12
76007;BMP280;64699;0.000;0.000;2022-12-29T07:19:22;100105.13;;;21.13
76007;BMP280;64699;0.000;0.000;2022-12-29T07:21:48;100103.13;;;21.14
76007;BMP280;64699;0.000;0.000;2022-12-29T07:24:13;100114.34;;;21.16
76007;BMP280;64699;0.000;0.000;2022-12-29T07:26:39;100105.34;;;21.15
76007;BMP280;64699;0.000;0.000;2022-12-29T07:29:04;100108.06;;;21.23
76007;BMP280;64699;0.000;0.000;2022-12-29T07:31:30;100112.69;;;21.28
76007;BMP280;64699;0.000;0.000;2022-12-29T07:33:56;100109.53;;;21.24
76007;BMP280;64699;0.000;0.000;2022-12-29T07:36:21;100110.28;;;21.17
76007;BMP280;64699;0.000;0.000;2022-12-29T07:38:47;100097.97;;;21.18
76007;BMP280;64699;0.000;0.000;2022-12-29T07:41:12;100104.41;;;21.13
76007;BMP280;64699;0.000;0.000;2022-12-29T07:43:38;100101.50;;;21.11
76007;BMP280;64699;0.000;0.000;2022-12-29T08:12:02;100082.34;;;20.98
76007;BMP280;64699;0.000;0.000;2022-12-29T08:14:27;100081.06;;;21.06
76007;BMP280;64699;0.000;0.000;2022-12-29T08:16:53;100076.78;;;21.13
76007;BMP280;64699;0.000;0.000;2022-12-29T08:19:18;100067.22;;;21.14
76007;BMP280;64699;0.000;0.000;2022-12-29T08:21:44;100076.44;;;21.16
76007;BMP280;64699;0.000;0.000;2022-12-29T08:24:10;100076.22;;;21.22
76007;BMP280;64699;0.000;0.000;2022-12-29T08:26:35;100069.41;;;21.23
76007;BMP280;64699;0.000;0.000;2022-12-29T08:29:01;100057.06;;;21.24
76007;BMP280;64699;0.000;0.000;2022-12-29T08:31:26;100052.81;;;21.23
76007;BMP280;64699;0.000;0.000;2022-12-29T08:33:52;100057.06;;;21.24
76007;BMP280;64699;0.000;0.000;2022-12-29T08:36:18;100057.06;;;21.24
76007;BMP280;64699;0.000;0.000;2022-12-29T08:38:43;100066.78;;;21.25
76007;BMP280;64699;0.000;0.000;2022-12-29T08:41:09;100069.41;;;21.23
76007;BMP280;64699;0.000;0.000;2022-12-29T08:43:34;100065.16;;;21.22
76007;BMP280;64699;0.000;0.000;2022-12-29T08:46:00;100071.94;;;21.28
76007;BMP280;64699;0.000;0.000;2022-12-29T08:48:26;100073.03;;;21.33
76007;BMP280;64699;0.000;0.000;2022-12-29T08:50:52;100072.28;;;21.40
76007;BMP280;64699;0.000;0.000;2022-12-29T08:53:18;100081.25;;;21.48
76007;BMP280;64699;0.000;0.000;2022-12-29T08:55:47;100076.78;;;21.59
76007;BMP280;64699;0.000;0.000;2022-12-29T08:58:19;100088.00;;;21.61
76007;BMP280;64699;0.000;0.000;2022-12-29T09:00:44;100091.69;;;21.64
76007;BMP280;64699;0.000;0.000;2022-12-29T09:03:10;100093.91;;;21.65
76007;BMP280;64699;0.000;0.000;2022-12-29T09:05:36;100092.22;;;21.70
76007;BMP280;64699;0.000;0.000;2022-12-29T09:08:01;100097.38;;;21.73
76007;BMP280;64699;0.000;0.000;2022-12-29T09:10:27;100079.78;;;21.78
76007;BMP280;64699;0.000;0.000;2022-12-29T09:12:52;100089.06;;;21.73
76007;BMP280;64699;0.000;0.000;2022-12-29T09:15:18;100084.84;;;21.72
76007;BMP280;64699;0.000;0.000;2022-12-29T09:17:44;100082.06;;;21.72
76007;BMP280;64699;0.000;0.000;2022-12-29T09:20:11;100072.81;;;21.77
76007;BMP280;64699;0.000;0.000;2022-12-29T09:22:36;100075.41;;;21.75
76007;BMP280;64699;0.000;0.000;2022-12-29T09:25:02;100075.78;;;21.72
76007;BMP280;64699;0.000;0.000;2022-12-29T09:27:28;100063.81;;;21.69
76007;BMP280;64699;0.000;0.000;2022-12-29T09:29:55;100068.44;;;21.67
76007;BMP280;64699;0.000;0.000;2022-12-29T09:32:21;100076.03;;;21.66
76007;BMP280;64699;0.000;0.000;2022-12-29T09:34:46;100063.50;;;21.65
76007;BMP280;64699;0.000;0.000;2022-12-29T09:37:12;100051.34;;;21.61
76007;BMP280;64699;0.000;0.000;2022-12-29T09:39:37;100060.03;;;21.58
76007;BMP280;64699;0.000;0.000;2022-12-29T09:42:12;100062.41;;;21.61
76007;BMP280;64699;0.000;0.000;2022-12-29T09:44:48;100070.69;;;21.61
76007;BMP280;64699;0.000;0.000;2022-12-29T09:47:16;100065.72;;;21.59
76007;BMP280;64699;0.000;0.000;2022-12-29T09:52:24;100071.25;;;21.59
76007;BMP280;64699;0.000;0.000;2022-12-29T09:57:21;100050.00;;;21.69
76007;BMP280;64699;0.000;0.000;2022-12-29T09:59:49;100043.53;;;21.67
76007;BMP280;64699;0.000;0.000;2022-12-29T10:02:32;100041.53;;;21.67
76007;BMP280;64699;0.000;0.000;2022-12-29T10:04:58;100044.47;;;21.69
76007;BMP280;64699;0.000;0.000;2022-12-29T10:07:36;100036.34;;;21.71
76007;BMP280;64699;0.000;0.000;2022-12-29T10:10:14;100035.78;;;21.73
76007;BMP280;64699;0.000;0.000;2022-12-29T10:12:53;100037.44;;;21.76
76007;BMP280;64699;0.000;0.000;2022-12-29T10:20:30;100036.22;;;21.86
76007;BMP280;64699;0.000;0.000;2022-12-29T10:25:25;100019.31;;;22.07
76007;BMP280;64699;0.000;0.000;2022-12-29T10:27:52;100024.94;;;22.16
76007;BMP280;64699;0.000;0.000;2022-12-29T10:30:21;100024.59;;;22.12
76007;BMP280;64699;0.000;0.000;2022-12-29T10:32:48;100019.53;;;22.01
76007;BMP280;64699;0.000;0.000;2022-12-29T10:35:16;100014.78;;;21.94
76007;BMP280;64699;0.000;0.000;2022-12-29T10:37:45;100019.63;;;21.86
76007;BMP280;64699;0.000;0.000;2022-12-29T10:40:22;100006.44;;;21.77
76007;BMP280;64699;0.000;0.000;2022-12-29T10:42:53;100007.28;;;21.63
76007;BMP280;64699;0.000;0.000;2022-12-29T10:45:19;100008.44;;;21.53
76007;BMP280;64699;0.000;0.000;2022-12-29T10:48:01;100011.44;;;21.47
76007;BMP280;64699;0.000;0.000;2022-12-29T10:50:27;100015.28;;;21.44
76007;BMP280;64699;0.000;0.000;2022-12-29T10:52:55;100010.19;;;21.41
76007;BMP280;64699;0.000;0.000;2022-12-29T10:55:24;100007.75;;;21.45
76007;BMP280;64699;0.000;0.000;2022-12-29T10:57:53;99998.53;;;21.50
76007;BMP280;64699;0.000;0.000;2022-12-29T11:00:22;100000.00;;;21.51
76007;BMP280;64699;0.000;0.000;2022-12-29T11:02:51;99992.63;;;21.53
76007;BMP280;64699;0.000;0.000;2022-12-29T11:05:25;99995.56;;;21.48
76007;BMP280;64699;0.000;0.000;2022-12-29T11:08:00;99986.00;;;21.49
76007;BMP280;64699;0.000;0.000;2022-12-29T11:10:34;99983.06;;;21.47
76007;BMP280;64699;0.000;0.000;2022-12-29T11:13:03;99990.63;;;21.46
76007;BMP280;64699;0.000;0.000;2022-12-29T11:15:39;99978.97;;;21.48
76007;BMP280;64699;0.000;0.000;2022-12-29T11:18:07;99994.28;;;21.49
76007;BMP280;64699;0.000;0.000;2022-12-29T11:20:43;99995.91;;;21.52
76007;BMP280;64699;0.000;0.000;2022-12-29T11:23:22;99991.88;;;21.53
76007;BMP280;64699;0.000;0.000;2022-12-29T11:28:33;99994.81;;;21.55
76007;BMP280;64699;0.000;0.000;2022-12-29T11:31:00;100006.03;;;21.57
76007;BMP280;64699;0.000;0.000;2022-12-29T11:33:30;99991.25;;;21.61
76007;BMP280;64699;0.000;0.000;2022-12-29T11:38:40;99987.91;;;21.63
76007;BMP280;64699;0.000;0.000;2022-12-29T11:41:11;99987.78;;;21.61
76007;BMP280;64699;0.000;0.000;2022-12-29T11:43:38;99980.03;;;21.59
76007;BMP280;64699;0.000;0.000;2022-12-29T11:46:04;99994.41;;;21.58
76007;BMP280;64699;0.000;0.000;2022-12-29T11:48:39;99992.22;;;21.57
76007;BMP280;64699;0.000;0.000;2022-12-29T11:51:05;99984.16;;;21.51
76007;BMP280;64699;0.000;0.000;2022-12-29T11:56:10;99986.28;;;21.36
76007;BMP280;64699;0.000;0.000;2022-12-29T11:58:37;99986.47;;;21.30
76007;BMP280;64699;0.000;0.000;2022-12-29T12:01:45;99992.25;;;21.17
76007;BMP280;64699;0.000;0.000;2022-12-29T12:04:09;99982.81;;;21.20
76007;BMP280;64699;0.000;0.000;2022-12-29T12:07:20;99980.22;;;21.30
76007;BMP280;64699;0.000;0.000;2022-12-29T12:09:31;99984.94;;;21.37
76007;BMP280;64699;0.000;0.000;2022-12-29T12:11:59;99986.03;;;21.41
76007;BMP280;64699;0.000;0.000;2022-12-29T12:17:02;99968.06;;;21.25
76007;BMP280;64699;0.000;0.000;2022-12-29T12:19:46;99971.63;;;21.18
76007;BMP280;64699;0.000;0.000;2022-12-29T12:22:16;99966.47;;;21.15
76007;BMP280;64699;0.000;0.000;2022-12-29T12:27:24;99975.72;;;21.10
76007;BMP280;64699;0.000;0.000;2022-12-29T12:35:03;99955.25;;;21.13
76007;BMP280;64699;0.000;0.000;2022-12-29T12:37:42;99967.59;;;21.12
76007;BMP280;64699;0.000;0.000;2022-12-29T12:45:52;99953.94;;;21.14
76007;BMP280;64699;0.000;0.000;2022-12-29T12:53:38;99945.34;;;21.10
76007;BMP280;64699;0.000;0.000;2022-12-29T12:56:10;99943.84;;;21.09
76007;BMP280;64699;0.000;0.000;2022-12-29T13:19:36;99931.53;;;21.10
76007;BMP280;64699;0.000;0.000;2022-12-29T13:24:42;99942.75;;;21.12
76007;BMP280;64699;0.000;0.000;2022-12-29T13:27:26;99944.75;;;21.11
76007;BMP280;64699;0.000;0.000;2022-12-29T13:37:21;99954.09;;;21.23
76007;BMP280;64699;0.000;0.000;2022-12-29T13:39:51;99963.88;;;21.24
76007;BMP280;64699;0.000;0.000;2022-12-29T13:42:17;99959.25;;;21.27
76007;BMP280;64699;0.000;0.000;2022-12-29T13:44:54;99955.72;;;21.26
76007;BMP280;64699;0.000;0.000;2022-12-29T13:47:33;99942.06;;;21.28
76007;BMP280;64699;0.000;0.000;2022-12-29T13:50:01;99955.19;;;21.28
76007;BMP280;64699;0.000;0.000;2022-12-29T13:52:31;99951.84;;;21.29
76007;BMP280;64699;0.000;0.000;2022-12-29T13:55:20;99953.31;;;21.30
76007;BMP280;64699;0.000;0.000;2022-12-29T13:57:50;99955.53;;;21.32
76007;BMP280;64699;0.000;0.000;2022-12-29T14:00:18;99965.25;;;21.33
76007;BMP280;64699;0.000;0.000;2022-12-29T14:07:45;99960.25;;;21.39
76007;BMP280;64699;0.000;0.000;2022-12-29T14:13:13;99970.59;;;21.38
76007;BMP280;64699;0.000;0.000;2022-12-29T14:15:40;99972.78;;;21.40
76007;BMP280;64699;0.000;0.000;2022-12-29T14:18:14;99970.22;;;21.42
76007;BMP280;64699;0.000;0.000;2022-12-29T14:21:02;99969.31;;;21.39
76007;BMP280;64699;0.000;0.000;2022-12-29T14:25:58;99967.25;;;21.40
76007;BMP280;64699;0.000;0.000;2022-12-29T14:28:28;99967.25;;;21.40
76007;BMP280;64699;0.000;0.000;2022-12-29T14:30:55;99970.03;;;21.40
76007;BMP280;64699;0.000;0.000;2022-12-29T14:33:21;99961.00;;;21.39
76007;BMP280;64699;0.000;0.000;2022-12-29T14:35:48;99965.22;;;21.40
76007;BMP280;64699;0.000;0.000;2022-12-29T14:38:21;99970.53;;;21.46
76007;BMP280;64699;0.000;0.000;2022-12-29T14:40:47;99968.91;;;21.43
76007;BMP280;64699;0.000;0.000;2022-12-29T14:43:23;99963.38;;;21.43
76007;BMP280;64699;0.000;0.000;2022-12-29T14:45:52;99944.75;;;21.43
76007;BMP280;64699;0.000;0.000;2022-12-29T14:48:27;99956.50;;;21.51
76007;BMP280;64699;0.000;0.000;2022-12-29T14:50:54;99951.47;;;21.57
76007;BMP280;64699;0.000;0.000;2022-12-29T14:53:40;99953.84;;;21.60
76007;BMP280;64699;0.000;0.000;2022-12-29T14:56:08;99960.84;;;21.61
76007;BMP280;64699;0.000;0.000;2022-12-29T14:58:44;99955.47;;;21.63
76007;BMP280;64699;0.000;0.000;2022-12-29T15:01:35;99947.38;;;21.65
76007;BMP280;64699;0.000;0.000;2022-12-29T15:04:04;99948.09;;;21.66
76007;BMP280;64699;0.000;0.000;2022-12-29T15:06:30;99960.59;;;21.67
76007;BMP280;64699;0.000;0.000;2022-12-29T15:09:06;99965.31;;;21.57
76007;BMP280;64699;0.000;0.000;2022-12-29T15:14:02;99944.06;;;21.35
76007;BMP280;64699;0.000;0.000;2022-12-29T15:16:32;99963.25;;;21.33
76007;BMP280;64699;0.000;0.000;2022-12-29T15:18:59;99968.91;;;21.43
76007;BMP280;64699;0.000;0.000;2022-12-29T15:21:25;99962.41;;;21.48
76007;BMP280;64699;0.000;0.000;2022-12-29T15:23:52;99958.31;;;21.56
76007;BMP280;64699;0.000;0.000;2022-12-29T15:26:18;99954.59;;;21.61
76007;BMP280;64699;0.000;0.000;2022-12-29T15:28:47;99952.31;;;21.67
76007;BMP280;64699;0.000;0.000;2022-12-29T15:31:18;99962.69;;;21.66
76007;BMP280;64699;0.000;0.000;2022-12-29T15:33:45;99959.34;;;21.68
76007;BMP280;64699;0.000;0.000;2022-12-29T15:36:13;99949.53;;;21.67
76007;BMP280;64699;0.000;0.000;2022-12-29T15:38:44;99944.25;;;21.61
76007;BMP280;64699;0.000;0.000;2022-12-29T15:41:20;99953.84;;;21.60
76007;BMP280;64699;0.000;0.000;2022-12-29T15:43:50;99963.44;;;21.59
76007;BMP280;64699;0.000;0.000;2022-12-29T15:46:18;99966.38;;;21.61
76007;BMP280;64699;0.000;0.000;2022-12-29T15:48:44;99971.34;;;21.63
76007;BMP280;64699;0.000;0.000;2022-12-29T15:51:20;99961.00;;;21.63
76007;BMP280;64699;0.000;0.000;2022-12-29T15:53:48;99960.47;;;21.65
76007;BMP280;64699;0.000;0.000;2022-12-29T15:56:15;99958.97;;;21.64
76007;BMP280;64699;0.000;0.000;2022-12-29T16:01:33;99946.63;;;21.65
76007;BMP280;64699;0.000;0.000;2022-12-29T16:04:01;99957.16;;;21.66
76007;BMP280;64699;0.000;0.000;2022-12-29T16:06:29;99961.34;;;21.67
76007;BMP280;64699;0.000;0.000;2022-12-29T16:08:56;99962.69;;;21.66
76007;BMP280;64699;0.000;0.000;2022-12-29T16:13:48;99955.81;;;21.67
76007;BMP280;64699;0.000;0.000;2022-12-29T16:16:16;99957.84;;;21.67
76007;BMP280;64699;0.000;0.000;2022-12-29T16:18:42;99968.34;;;21.68
76007;BMP280;64699;0.000;0.000;2022-12-29T16:21:16;99960.81;;;21.69
76007;BMP280;64699;0.000;0.000;2022-12-29T16:23:44;99965.59;;;21.68
76007;BMP280;64699;0.000;0.000;2022-12-29T16:26:15;99970.41;;;21.68
76007;BMP280;64699;0.000;0.000;2022-12-29T16:28:41;99967.06;;;21.69
76007;BMP280;64699;0.000;0.000;2022-12-29T16:31:16;99970.28;;;21.59
76007;BMP280;64699;0.000;0.000;2022-12-29T16:33:49;99971.28;;;21.70
76007;BMP280;64699;0.000;0.000;2022-12-29T16:36:29;99982.47;;;21.80
76007;BMP280;64699;0.000;0.000;2022-12-29T16:39:10;99970.69;;;21.79
76007;BMP280;64699;0.000;0.000;2022-12-29T16:41:38;99974.31;;;21.89
76007;BMP280;64699;0.000;0.000;2022-12-29T16:44:16;99973.81;;;21.52
76007;BMP280;64699;0.000;0.000;2022-12-29T16:46:55;99974.38;;;21.18
76007;BMP280;64699;0.000;0.000;2022-12-29T16:49:23;99980.81;;;21.13
76007;BMP280;64699;0.000;0.000;2022-12-29T16:51:49;99978.25;;;20.61
76007;BMP280;64699;0.000;0.000;2022-12-29T16:54:24;99989.69;;;19.76
76007;BMP280;64699;0.000;0.000;2022-12-29T16:56:50;99992.28;;;19.81
76007;BMP280;64699;0.000;0.000;2022-12-29T16:59:23;99991.19;;;20.21